createdAt,value
2022-12-13T00:02:15.623Z,-0.10
2022-12-13T00:07:17.749Z,0.00
2022-12-13T00:12:22.614Z,0.00
2022-12-13T00:17:26.157Z,0.10
2022-12-13T00:22:28.236Z,0.00
2022-12-13T00:27:30.896Z,-0.10
2022-12-13T00:32:34.433Z,0.00
2022-12-13T00:37:36.538Z,0.00
2022-12-13T00:42:38.601Z,0.00
2022-12-13T00:47:42.204Z,0.00
2022-12-13T00:52:44.254Z,-0.10
2022-12-13T00:57:46.308Z,-0.20
2022-12-13T01:02:49.773Z,-0.30
2022-12-13T01:07:51.902Z,-0.50
2022-12-13T01:12:54.086Z,-0.50
2022-12-13T01:17:57.657Z,-0.50
2022-12-13T01:22:59.780Z,-0.50
2022-12-13T01:28:01.805Z,-0.50
2022-12-13T01:33:13.933Z,-0.60
2022-12-13T01:38:16.929Z,-0.60
2022-12-13T01:43:19.025Z,-0.60
2022-12-13T01:48:27.634Z,-0.70
2022-12-13T01:53:35.269Z,-0.80
2022-12-13T01:58:40.538Z,-0.80
2022-12-13T02:03:45.511Z,-0.80
2022-12-13T02:08:47.677Z,-0.90
2022-12-13T02:13:49.706Z,-1.00
2022-12-13T02:19:04.667Z,-1.00
2022-12-13T02:24:36.370Z,-0.90
2022-12-13T02:30:15.913Z,-0.80
2022-12-13T02:35:25.971Z,-0.80
2022-12-13T02:40:32.635Z,-0.70
2022-12-13T02:45:40.014Z,-0.60
2022-12-13T02:50:44.524Z,-0.60
2022-12-13T02:55:46.707Z,-0.60
2022-12-13T03:00:58.135Z,-0.60
2022-12-13T03:06:13.635Z,-0.70
2022-12-13T03:11:18.320Z,-0.80
2022-12-13T03:16:31.674Z,-0.80
2022-12-13T03:21:45.731Z,-0.90
2022-12-13T03:26:51.087Z,-0.90
2022-12-13T03:31:54.113Z,-1.00
2022-12-13T03:36:57.672Z,-1.00
2022-12-13T03:42:03.357Z,-1.00
2022-12-13T03:47:05.551Z,-1.00
2022-12-13T03:52:09.114Z,-1.00
2022-12-13T03:57:11.191Z,-1.00
2022-12-13T04:02:13.340Z,-1.10
2022-12-13T04:07:34.754Z,-1.20
2022-12-13T04:12:37.071Z,-1.20
2022-12-13T04:17:39.169Z,-1.30
2022-12-13T04:22:42.663Z,-1.40
2022-12-13T04:27:44.715Z,-1.50
2022-12-13T04:32:47.272Z,-1.50
2022-12-13T04:37:50.792Z,-1.60
2022-12-13T04:42:53.990Z,-1.60
2022-12-13T04:47:56.792Z,-1.50
2022-12-13T04:53:00.463Z,-1.50
2022-12-13T04:58:02.562Z,-1.50
2022-12-13T05:03:04.738Z,-1.60
2022-12-13T05:08:09.360Z,-1.60
2022-12-13T05:13:11.615Z,-1.50
2022-12-13T05:18:13.696Z,-1.50
2022-12-13T05:23:22.608Z,-1.50
2022-12-13T05:28:27.470Z,-1.50
2022-12-13T05:33:31.131Z,-1.50
2022-12-13T05:38:34.602Z,-1.50
2022-12-13T05:43:42.494Z,-1.40
2022-12-13T05:48:47.311Z,-1.20
2022-12-13T05:53:53.388Z,-1.10
2022-12-13T05:58:56.385Z,-1.00
2022-12-13T06:03:58.594Z,-1.00
2022-12-13T06:09:02.216Z,-0.90
2022-12-13T06:14:04.476Z,-0.80
2022-12-13T06:19:24.593Z,-0.80
2022-12-13T06:24:28.191Z,-0.80
2022-12-13T06:29:30.259Z,-0.80
2022-12-13T06:34:35.554Z,-0.80
2022-12-13T06:39:40.369Z,-0.80
2022-12-13T06:44:43.488Z,-0.90
2022-12-13T06:49:46.127Z,-1.00
2022-12-13T06:54:50.059Z,-1.00
2022-12-13T06:59:52.314Z,-1.10
2022-12-13T07:04:56.365Z,-1.20
2022-12-13T07:10:00.165Z,-1.20
2022-12-13T07:15:02.242Z,-1.30
2022-12-13T07:20:07.289Z,-1.30
2022-12-13T07:25:27.683Z,-1.30
2022-12-13T07:30:33.485Z,-1.30
2022-12-13T07:35:36.984Z,-1.40
2022-12-13T07:40:41.427Z,-1.40
2022-12-13T07:45:43.732Z,-1.40
2022-12-13T07:50:45.905Z,-1.30
2022-12-13T07:56:00.973Z,-1.10
2022-12-13T08:01:06.179Z,-1.10
2022-12-13T08:06:10.832Z,-1.00
2022-12-13T08:11:15.139Z,-1.00
2022-12-13T08:16:26.083Z,-1.00
2022-12-13T08:26:59.113Z,-1.00
2022-12-13T08:32:02.498Z,-1.00
2022-12-13T08:37:05.822Z,-1.00
2022-12-13T08:42:16.074Z,-1.10
2022-12-13T08:47:23.518Z,-1.10
2022-12-13T08:52:27.885Z,-1.10
2022-12-13T08:57:31.478Z,-1.00
2022-12-13T09:02:37.750Z,-0.90
2022-12-13T09:07:41.153Z,-0.50
2022-12-13T09:12:44.737Z,0.10
2022-12-13T09:17:52.330Z,0.60
2022-12-13T09:23:01.321Z,1.10
2022-12-13T09:28:07.402Z,1.50
2022-12-13T09:33:18.320Z,1.90
2022-12-13T09:38:31.762Z,2.30
2022-12-13T09:43:42.869Z,2.60
2022-12-13T09:48:48.393Z,2.70
2022-12-13T09:53:53.122Z,3.00
2022-12-13T09:58:57.223Z,3.10
2022-12-13T10:04:01.222Z,3.20
2022-12-13T10:09:06.807Z,3.30
2022-12-13T10:14:16.731Z,3.40
2022-12-13T10:19:28.955Z,3.50
2022-12-13T10:24:50.474Z,3.70
2022-12-13T10:30:07.459Z,4.00
2022-12-13T10:35:19.862Z,4.20
2022-12-13T10:40:32.433Z,4.40
2022-12-13T10:45:39.895Z,4.60
2022-12-13T10:50:42.285Z,4.90
2022-12-13T10:55:45.666Z,5.10
2022-12-13T11:00:49.564Z,5.30
2022-12-13T11:06:03.806Z,5.50
2022-12-13T11:11:08.043Z,5.80
2022-12-13T11:16:23.295Z,6.10
2022-12-13T11:21:27.899Z,6.30
2022-12-13T11:26:32.554Z,6.50
2022-12-13T11:31:43.816Z,6.60
2022-12-13T11:36:55.740Z,6.70
2022-12-13T11:42:05.088Z,6.90
2022-12-13T11:47:18.292Z,6.80
2022-12-13T11:52:27.980Z,6.70
2022-12-13T11:57:41.489Z,6.50
2022-12-13T12:02:49.256Z,6.40
2022-12-13T12:08:31.065Z,6.30
2022-12-13T12:13:24.498Z,6.20
2022-12-13T12:18:28.786Z,6.10
2022-12-13T12:23:52.604Z,6.00
2022-12-13T12:29:21.769Z,6.00
2022-12-13T12:34:36.166Z,6.30
2022-12-13T12:39:51.522Z,6.50
2022-12-13T12:45:10.637Z,6.60
2022-12-13T12:50:43.031Z,6.60
2022-12-13T12:55:51.944Z,6.50
2022-12-13T13:01:07.667Z,6.30
2022-12-13T13:06:15.561Z,6.10
2022-12-13T13:11:25.232Z,5.80
2022-12-13T13:16:38.213Z,5.40
2022-12-13T13:21:47.067Z,4.90
2022-12-13T13:26:52.380Z,4.50
2022-12-13T13:32:01.970Z,4.00
2022-12-13T13:37:59.308Z,3.60
2022-12-13T13:43:13.626Z,3.20
2022-12-13T13:48:28.389Z,2.90
2022-12-13T13:54:02.543Z,2.60
2022-12-13T13:59:49.098Z,2.30
2022-12-13T14:05:14.591Z,2.10
2022-12-13T14:10:30.372Z,2.00
2022-12-13T14:16:08.777Z,1.80
2022-12-13T14:21:21.968Z,1.70
2022-12-13T14:26:38.091Z,1.60
2022-12-13T14:31:43.939Z,1.50
2022-12-13T14:36:55.603Z,1.40
2022-12-13T14:42:00.783Z,1.20
2022-12-13T14:47:06.048Z,1.00
2022-12-13T14:52:26.821Z,0.90
2022-12-13T14:57:33.393Z,0.80
2022-12-13T15:02:35.663Z,0.70
2022-12-13T15:07:40.410Z,0.60
2022-12-13T15:12:45.530Z,0.50
2022-12-13T15:17:48.441Z,0.40
2022-12-13T15:22:58.818Z,0.40
2022-12-13T15:28:03.489Z,0.30
2022-12-13T15:33:08.401Z,0.30
2022-12-13T15:38:14.379Z,0.30
2022-12-13T15:43:38.175Z,0.20
2022-12-13T15:48:48.515Z,0.20
2022-12-13T15:54:17.726Z,0.10
2022-12-13T15:59:27.832Z,0.10
2022-12-13T16:04:31.906Z,0.10
2022-12-13T16:09:36.533Z,0.10
2022-12-13T16:14:49.630Z,0.10
2022-12-13T16:19:53.038Z,0.20
2022-12-13T16:24:55.209Z,0.20
2022-12-13T16:29:58.824Z,0.20
2022-12-13T16:35:00.941Z,0.30
2022-12-13T16:40:24.200Z,0.30
2022-12-13T16:45:41.713Z,0.20
2022-12-13T16:50:47.024Z,0.30
2022-12-13T16:55:58.966Z,0.30
2022-12-13T17:01:08.745Z,0.30
2022-12-13T17:06:12.702Z,0.30
2022-12-13T17:11:18.012Z,0.30
2022-12-13T17:16:22.126Z,0.20
2022-12-13T17:21:26.287Z,0.20
2022-12-13T17:26:29.193Z,0.20
2022-12-13T17:31:35.783Z,0.10
2022-12-13T17:36:38.671Z,0.10
2022-12-13T17:41:40.800Z,0.00
2022-12-13T17:46:44.333Z,0.00
2022-12-13T17:51:57.781Z,-0.10
2022-12-13T17:56:59.915Z,-0.20
2022-12-13T18:02:03.518Z,-0.30
2022-12-13T18:07:05.623Z,-0.40
2022-12-13T18:12:08.105Z,-0.40
2022-12-13T18:17:12.495Z,-0.50
2022-12-13T18:22:15.342Z,-0.60
2022-12-13T18:27:17.477Z,-0.60
2022-12-13T18:32:21.085Z,-0.70
2022-12-13T18:37:23.300Z,-0.70
2022-12-13T18:42:25.411Z,-0.80
2022-12-13T18:47:29.734Z,-0.80
2022-12-13T18:52:33.667Z,-0.90
2022-12-13T18:57:37.706Z,-0.90
2022-12-13T19:02:42.904Z,-1.00
2022-12-13T19:07:45.058Z,-1.00
2022-12-13T19:12:47.171Z,-1.00
2022-12-13T19:17:51.141Z,-1.00
2022-12-13T19:22:53.681Z,-1.00
2022-12-13T19:27:55.972Z,-1.00
2022-12-13T19:32:59.516Z,-1.00
2022-12-13T19:38:01.916Z,-1.10
2022-12-13T19:43:04.562Z,-1.10
2022-12-13T19:48:09.802Z,-1.10
2022-12-13T19:53:12.983Z,-1.10
2022-12-13T19:58:16.216Z,-1.10
2022-12-13T20:03:20.433Z,-1.20
2022-12-13T20:08:24.206Z,-1.20
2022-12-13T20:13:30.884Z,-1.10
2022-12-13T20:18:35.077Z,-1.00
2022-12-13T20:23:37.792Z,-1.00
2022-12-13T20:28:41.154Z,-0.90
2022-12-13T20:33:45.255Z,-0.90
2022-12-13T20:38:48.163Z,-0.90
2022-12-13T20:43:52.210Z,-0.90
2022-12-13T20:48:57.151Z,-0.90
2022-12-13T20:54:02.194Z,-0.90
2022-12-13T20:59:05.839Z,-0.90
2022-12-13T21:04:15.525Z,-0.90
2022-12-13T21:09:18.947Z,-1.00
2022-12-13T21:14:25.568Z,-1.10
2022-12-13T21:19:35.837Z,-1.20
2022-12-13T21:24:39.988Z,-1.20
2022-12-13T21:29:42.290Z,-1.20
2022-12-13T21:34:45.852Z,-1.30
2022-12-13T21:39:47.905Z,-1.30
2022-12-13T21:44:50.111Z,-1.30
2022-12-13T21:49:53.578Z,-1.40
2022-12-13T21:55:15.221Z,-1.30
2022-12-13T22:00:17.762Z,-1.30
2022-12-13T22:05:21.288Z,-1.30
2022-12-13T22:10:23.402Z,-1.30
2022-12-13T22:15:25.543Z,-1.30
2022-12-13T22:20:29.153Z,-1.30
2022-12-13T22:25:31.336Z,-1.30
2022-12-13T22:30:33.380Z,-1.30
2022-12-13T22:35:37.987Z,-1.30
2022-12-13T22:40:40.122Z,-1.30
2022-12-13T22:45:42.281Z,-1.30
2022-12-13T22:50:45.869Z,-1.30
2022-12-13T22:55:47.982Z,-1.40
2022-12-13T23:00:50.196Z,-1.40
2022-12-13T23:05:53.846Z,-1.40
2022-12-13T23:10:59.249Z,-1.40
2022-12-13T23:16:05.955Z,-1.40
2022-12-13T23:21:09.241Z,-1.40
2022-12-13T23:26:13.191Z,-1.40
2022-12-13T23:31:16.491Z,-1.40
2022-12-13T23:36:22.068Z,-1.40
2022-12-13T23:41:29.466Z,-1.40
2022-12-13T23:46:37.067Z,-1.40
2022-12-13T23:51:40.561Z,-1.30
2022-12-13T23:56:42.658Z,-1.30
